sensor_id;sensor_type;location;lat;lon;timestamp;temperature;humidity
18690;DHT22;9782;52.930;15.562;2022-07-04T00:04:50;19.80;1.00
18690;DHT22;9782;52.930;15.562;2022-07-04T00:07:34;19.80;1.00
18690;DHT22;9782;52.930;15.562;2022-07-04T00:10:18;19.70;1.00
18690;DHT22;9782;52.930;15.562;2022-07-04T00:13:07;19.70;1.00
18690;DHT22;9782;52.930;15.562;2022-07-04T00:15:40;19.70;1.00
18690;DHT22;9782;52.930;15.562;2022-07-04T00:18:27;19.70;1.00
18690;DHT22;9782;52.930;15.562;2022-07-04T00:21:21;19.60;1.00
18690;DHT22;9782;52.930;15.562;2022-07-04T00:27:22;19.50;1.00
18690;DHT22;9782;52.930;15.562;2022-07-04T00:30:12;19.50;1.00
18690;DHT22;9782;52.930;15.562;2022-07-04T00:33:13;19.50;1.00
18690;DHT22;9782;52.930;15.562;2022-07-04T00:36:23;19.40;1.00
18690;DHT22;9782;52.930;15.562;2022-07-04T00:39:18;19.40;1.00
18690;DHT22;9782;52.930;15.562;2022-07-04T00:42:02;19.30;1.00
18690;DHT22;9782;52.930;15.562;2022-07-04T00:44:40;19.30;1.00
18690;DHT22;9782;52.930;15.562;2022-07-04T00:47:31;19.20;1.00
18690;DHT22;9782;52.930;15.562;2022-07-04T00:50:26;19.20;1.00
18690;DHT22;9782;52.930;15.562;2022-07-04T00:52:59;19.20;1.00
18690;DHT22;9782;52.930;15.562;2022-07-04T00:55:42;19.20;1.00
18690;DHT22;9782;52.930;15.562;2022-07-04T00:58:21;19.10;1.00
18690;DHT22;9782;52.930;15.562;2022-07-04T01:01:06;19.10;1.00
18690;DHT22;9782;52.930;15.562;2022-07-04T01:07:57;19.10;45.10
18690;DHT22;9782;52.930;15.562;2022-07-04T01:10:23;19.00;99.90
18690;DHT22;9782;52.930;15.562;2022-07-04T01:13:19;18.90;99.90
18690;DHT22;9782;52.930;15.562;2022-07-04T01:19:22;18.90;99.90
18690;DHT22;9782;52.930;15.562;2022-07-04T01:22:29;18.80;99.90
18690;DHT22;9782;52.930;15.562;2022-07-04T01:25:39;18.80;99.90
18690;DHT22;9782;52.930;15.562;2022-07-04T01:28:43;18.80;99.90
18690;DHT22;9782;52.930;15.562;2022-07-04T01:31:35;18.80;99.90
18690;DHT22;9782;52.930;15.562;2022-07-04T01:34:20;18.80;99.90
18690;DHT22;9782;52.930;15.562;2022-07-04T01:37:05;18.80;99.90
18690;DHT22;9782;52.930;15.562;2022-07-04T01:39:46;18.90;99.90
18690;DHT22;9782;52.930;15.562;2022-07-04T01:42:34;19.00;99.90
18690;DHT22;9782;52.930;15.562;2022-07-04T01:45:11;19.00;99.90
18690;DHT22;9782;52.930;15.562;2022-07-04T01:51:06;19.00;99.90
18690;DHT22;9782;52.930;15.562;2022-07-04T01:56:47;19.20;99.90
18690;DHT22;9782;52.930;15.562;2022-07-04T01:59:42;19.20;99.90
18690;DHT22;9782;52.930;15.562;2022-07-04T02:02:33;19.30;99.90
18690;DHT22;9782;52.930;15.562;2022-07-04T02:05:33;19.30;99.90
18690;DHT22;9782;52.930;15.562;2022-07-04T02:08:16;19.30;99.90
18690;DHT22;9782;52.930;15.562;2022-07-04T02:10:54;19.40;99.90
18690;DHT22;9782;52.930;15.562;2022-07-04T02:13:44;19.40;99.90
18690;DHT22;9782;52.930;15.562;2022-07-04T02:16:29;19.30;99.90
18690;DHT22;9782;52.930;15.562;2022-07-04T02:18:59;19.30;99.90
18690;DHT22;9782;52.930;15.562;2022-07-04T02:21:39;19.30;99.90
18690;DHT22;9782;52.930;15.562;2022-07-04T02:24:23;19.20;99.90
18690;DHT22;9782;52.930;15.562;2022-07-04T02:27:04;19.10;99.90
18690;DHT22;9782;52.930;15.562;2022-07-04T02:29:39;19.10;99.90
18690;DHT22;9782;52.930;15.562;2022-07-04T02:32:16;19.00;1.00
18690;DHT22;9782;52.930;15.562;2022-07-04T02:34:59;19.00;1.00
18690;DHT22;9782;52.930;15.562;2022-07-04T02:37:44;18.90;1.00
18690;DHT22;9782;52.930;15.562;2022-07-04T02:40:34;18.90;1.00
18690;DHT22;9782;52.930;15.562;2022-07-04T02:43:25;18.80;1.00
18690;DHT22;9782;52.930;15.562;2022-07-04T02:46:06;18.80;1.00
18690;DHT22;9782;52.930;15.562;2022-07-04T02:48:41;18.70;1.00
18690;DHT22;9782;52.930;15.562;2022-07-04T02:51:19;18.70;1.00
18690;DHT22;9782;52.930;15.562;2022-07-04T02:53:51;18.50;1.00
18690;DHT22;9782;52.930;15.562;2022-07-04T02:56:20;18.40;1.00
18690;DHT22;9782;52.930;15.562;2022-07-04T02:58:47;18.30;1.00
18690;DHT22;9782;52.930;15.562;2022-07-04T03:01:16;18.10;67.90
18690;DHT22;9782;52.930;15.562;2022-07-04T03:03:45;18.00;99.90
18690;DHT22;9782;52.930;15.562;2022-07-04T03:06:13;18.00;99.90
18690;DHT22;9782;52.930;15.562;2022-07-04T03:08:40;18.00;99.90
18690;DHT22;9782;52.930;15.562;2022-07-04T03:11:07;18.00;99.90
18690;DHT22;9782;52.930;15.562;2022-07-04T03:13:35;18.00;99.90
18690;DHT22;9782;52.930;15.562;2022-07-04T03:16:03;17.90;99.90
18690;DHT22;9782;52.930;15.562;2022-07-04T03:18:31;17.90;1.00
18690;DHT22;9782;52.930;15.562;2022-07-04T03:20:58;18.00;1.00
18690;DHT22;9782;52.930;15.562;2022-07-04T03:23:25;18.00;1.00
18690;DHT22;9782;52.930;15.562;2022-07-04T03:25:52;18.00;1.00
18690;DHT22;9782;52.930;15.562;2022-07-04T03:28:19;18.00;1.00
18690;DHT22;9782;52.930;15.562;2022-07-04T03:30:47;18.10;1.00
18690;DHT22;9782;52.930;15.562;2022-07-04T03:33:14;18.10;1.00
18690;DHT22;9782;52.930;15.562;2022-07-04T03:35:42;18.20;1.00
18690;DHT22;9782;52.930;15.562;2022-07-04T03:38:09;18.30;1.00
18690;DHT22;9782;52.930;15.562;2022-07-04T03:40:36;18.40;1.00
18690;DHT22;9782;52.930;15.562;2022-07-04T03:43:04;18.50;1.00
18690;DHT22;9782;52.930;15.562;2022-07-04T03:45:32;18.50;1.00
18690;DHT22;9782;52.930;15.562;2022-07-04T03:48:00;18.50;1.00
18690;DHT22;9782;52.930;15.562;2022-07-04T03:50:28;18.50;1.00
18690;DHT22;9782;52.930;15.562;2022-07-04T03:52:57;18.50;1.00
18690;DHT22;9782;52.930;15.562;2022-07-04T03:55:24;18.60;1.00
18690;DHT22;9782;52.930;15.562;2022-07-04T03:57:51;18.60;1.00
18690;DHT22;9782;52.930;15.562;2022-07-04T04:00:18;18.60;87.20
18690;DHT22;9782;52.930;15.562;2022-07-04T04:02:45;18.60;99.90
18690;DHT22;9782;52.930;15.562;2022-07-04T04:05:12;18.60;99.90
18690;DHT22;9782;52.930;15.562;2022-07-04T04:07:57;18.60;1.00
18690;DHT22;9782;52.930;15.562;2022-07-04T04:10:25;18.50;1.00
18690;DHT22;9782;52.930;15.562;2022-07-04T04:12:52;18.50;1.00
18690;DHT22;9782;52.930;15.562;2022-07-04T04:15:19;18.50;1.00
18690;DHT22;9782;52.930;15.562;2022-07-04T04:17:46;18.40;99.90
18690;DHT22;9782;52.930;15.562;2022-07-04T04:20:13;18.30;1.00
18690;DHT22;9782;52.930;15.562;2022-07-04T04:22:41;18.20;48.10
18690;DHT22;9782;52.930;15.562;2022-07-04T04:25:10;18.10;99.90
18690;DHT22;9782;52.930;15.562;2022-07-04T04:27:37;18.10;1.00
18690;DHT22;9782;52.930;15.562;2022-07-04T04:30:05;18.10;1.00
18690;DHT22;9782;52.930;15.562;2022-07-04T04:32:32;18.10;1.00
18690;DHT22;9782;52.930;15.562;2022-07-04T04:34:59;18.10;99.90
18690;DHT22;9782;52.930;15.562;2022-07-04T04:37:26;18.10;99.90
18690;DHT22;9782;52.930;15.562;2022-07-04T04:39:54;18.00;1.00
18690;DHT22;9782;52.930;15.562;2022-07-04T04:42:22;18.00;1.00
18690;DHT22;9782;52.930;15.562;2022-07-04T04:44:49;17.80;1.00
18690;DHT22;9782;52.930;15.562;2022-07-04T04:47:17;17.80;1.00
18690;DHT22;9782;52.930;15.562;2022-07-04T04:49:45;17.70;1.00
18690;DHT22;9782;52.930;15.562;2022-07-04T04:52:13;17.70;1.00
18690;DHT22;9782;52.930;15.562;2022-07-04T04:54:40;17.70;1.00
18690;DHT22;9782;52.930;15.562;2022-07-04T04:57:07;17.70;99.90
18690;DHT22;9782;52.930;15.562;2022-07-04T04:59:35;17.70;99.90
18690;DHT22;9782;52.930;15.562;2022-07-04T05:02:03;17.70;99.90
18690;DHT22;9782;52.930;15.562;2022-07-04T05:04:30;17.70;1.00
18690;DHT22;9782;52.930;15.562;2022-07-04T05:06:57;17.80;1.00
18690;DHT22;9782;52.930;15.562;2022-07-04T05:09:24;17.80;1.00
18690;DHT22;9782;52.930;15.562;2022-07-04T05:11:51;17.80;1.00
18690;DHT22;9782;52.930;15.562;2022-07-04T05:14:19;17.90;1.00
18690;DHT22;9782;52.930;15.562;2022-07-04T05:16:47;17.90;1.00
18690;DHT22;9782;52.930;15.562;2022-07-04T05:19:14;18.00;1.00
18690;DHT22;9782;52.930;15.562;2022-07-04T05:21:41;18.10;1.00
18690;DHT22;9782;52.930;15.562;2022-07-04T05:24:08;18.30;99.90
18690;DHT22;9782;52.930;15.562;2022-07-04T05:26:36;18.50;99.90
18690;DHT22;9782;52.930;15.562;2022-07-04T05:29:04;18.60;21.50
18690;DHT22;9782;52.930;15.562;2022-07-04T05:31:31;18.70;1.00
18690;DHT22;9782;52.930;15.562;2022-07-04T05:33:59;18.80;29.50
18690;DHT22;9782;52.930;15.562;2022-07-04T05:36:28;19.10;99.90
18690;DHT22;9782;52.930;15.562;2022-07-04T05:38:55;19.70;99.90
18690;DHT22;9782;52.930;15.562;2022-07-04T05:41:22;20.70;55.20
18690;DHT22;9782;52.930;15.562;2022-07-04T05:43:49;21.60;1.00
18690;DHT22;9782;52.930;15.562;2022-07-04T05:46:16;22.90;1.00
18690;DHT22;9782;52.930;15.562;2022-07-04T05:48:43;24.80;24.30
18690;DHT22;9782;52.930;15.562;2022-07-04T05:51:12;26.50;1.00
18690;DHT22;9782;52.930;15.562;2022-07-04T05:53:39;27.80;1.00
18690;DHT22;9782;52.930;15.562;2022-07-04T05:56:06;28.90;1.00
18690;DHT22;9782;52.930;15.562;2022-07-04T05:58:33;29.70;1.00
18690;DHT22;9782;52.930;15.562;2022-07-04T06:01:00;29.70;1.00
18690;DHT22;9782;52.930;15.562;2022-07-04T06:03:27;30.30;1.00
18690;DHT22;9782;52.930;15.562;2022-07-04T06:05:54;31.30;1.00
18690;DHT22;9782;52.930;15.562;2022-07-04T06:08:24;31.80;99.90
18690;DHT22;9782;52.930;15.562;2022-07-04T06:10:51;32.00;99.90
18690;DHT22;9782;52.930;15.562;2022-07-04T06:13:18;31.70;99.90
18690;DHT22;9782;52.930;15.562;2022-07-04T06:15:46;31.30;99.90
18690;DHT22;9782;52.930;15.562;2022-07-04T06:18:13;31.00;99.90
18690;DHT22;9782;52.930;15.562;2022-07-04T06:20:40;30.70;99.90
18690;DHT22;9782;52.930;15.562;2022-07-04T06:23:08;30.40;99.90
18690;DHT22;9782;52.930;15.562;2022-07-04T06:25:36;30.30;99.90
18690;DHT22;9782;52.930;15.562;2022-07-04T06:28:04;30.70;99.90
18690;DHT22;9782;52.930;15.562;2022-07-04T06:30:31;31.60;99.90
18690;DHT22;9782;52.930;15.562;2022-07-04T06:32:58;32.60;99.90
18690;DHT22;9782;52.930;15.562;2022-07-04T06:35:26;33.60;99.90
18690;DHT22;9782;52.930;15.562;2022-07-04T06:38:11;34.60;99.90
18690;DHT22;9782;52.930;15.562;2022-07-04T06:40:39;35.80;99.90
18690;DHT22;9782;52.930;15.562;2022-07-04T06:43:07;36.50;99.90
18690;DHT22;9782;52.930;15.562;2022-07-04T06:45:34;37.30;99.90
18690;DHT22;9782;52.930;15.562;2022-07-04T06:48:02;37.90;99.90
18690;DHT22;9782;52.930;15.562;2022-07-04T06:50:30;38.30;99.90
18690;DHT22;9782;52.930;15.562;2022-07-04T06:52:58;38.80;99.90
18690;DHT22;9782;52.930;15.562;2022-07-04T06:55:26;39.50;99.90
18690;DHT22;9782;52.930;15.562;2022-07-04T06:58:05;40.00;99.90
18690;DHT22;9782;52.930;15.562;2022-07-04T07:00:33;40.30;99.90
18690;DHT22;9782;52.930;15.562;2022-07-04T07:03:01;40.50;99.90
18690;DHT22;9782;52.930;15.562;2022-07-04T07:05:29;40.80;99.90
18690;DHT22;9782;52.930;15.562;2022-07-04T07:07:56;41.20;99.90
18690;DHT22;9782;52.930;15.562;2022-07-04T07:10:23;41.30;99.90
18690;DHT22;9782;52.930;15.562;2022-07-04T07:12:51;41.40;99.90
18690;DHT22;9782;52.930;15.562;2022-07-04T07:15:19;41.60;99.90
18690;DHT22;9782;52.930;15.562;2022-07-04T07:17:46;41.80;99.90
18690;DHT22;9782;52.930;15.562;2022-07-04T07:20:14;41.80;99.90
18690;DHT22;9782;52.930;15.562;2022-07-04T07:22:41;42.10;99.90
18690;DHT22;9782;52.930;15.562;2022-07-04T07:25:09;42.40;99.90
18690;DHT22;9782;52.930;15.562;2022-07-04T07:27:36;42.70;99.90
18690;DHT22;9782;52.930;15.562;2022-07-04T07:32:54;42.80;99.90
18690;DHT22;9782;52.930;15.562;2022-07-04T07:35:26;42.90;99.90
18690;DHT22;9782;52.930;15.562;2022-07-04T07:37:56;42.90;99.90
18690;DHT22;9782;52.930;15.562;2022-07-04T07:40:27;43.00;99.90
18690;DHT22;9782;52.930;15.562;2022-07-04T07:43:00;43.00;99.90
18690;DHT22;9782;52.930;15.562;2022-07-04T07:45:31;42.80;99.90
18690;DHT22;9782;52.930;15.562;2022-07-04T07:48:00;42.80;99.90
18690;DHT22;9782;52.930;15.562;2022-07-04T07:50:27;43.00;99.90
18690;DHT22;9782;52.930;15.562;2022-07-04T07:52:58;43.00;99.90
18690;DHT22;9782;52.930;15.562;2022-07-04T07:55:29;43.10;99.90
18690;DHT22;9782;52.930;15.562;2022-07-04T07:57:56;43.00;99.90
18690;DHT22;9782;52.930;15.562;2022-07-04T08:00:25;43.00;99.90
18690;DHT22;9782;52.930;15.562;2022-07-04T08:02:52;43.00;99.90
18690;DHT22;9782;52.930;15.562;2022-07-04T08:05:39;42.90;99.90
18690;DHT22;9782;52.930;15.562;2022-07-04T08:08:06;42.90;99.90
18690;DHT22;9782;52.930;15.562;2022-07-04T08:10:36;42.60;99.90
18690;DHT22;9782;52.930;15.562;2022-07-04T08:13:04;42.30;99.90
18690;DHT22;9782;52.930;15.562;2022-07-04T08:15:31;41.40;99.90
18690;DHT22;9782;52.930;15.562;2022-07-04T08:17:59;40.90;99.90
18690;DHT22;9782;52.930;15.562;2022-07-04T08:20:26;40.70;99.90
18690;DHT22;9782;52.930;15.562;2022-07-04T08:22:55;40.80;99.90
18690;DHT22;9782;52.930;15.562;2022-07-04T08:25:22;40.90;99.90
18690;DHT22;9782;52.930;15.562;2022-07-04T08:27:49;40.80;99.90
18690;DHT22;9782;52.930;15.562;2022-07-04T08:30:17;40.70;99.90
18690;DHT22;9782;52.930;15.562;2022-07-04T08:32:53;40.50;99.90
18690;DHT22;9782;52.930;15.562;2022-07-04T08:35:22;40.60;99.90
18690;DHT22;9782;52.930;15.562;2022-07-04T08:38:03;40.60;99.90
18690;DHT22;9782;52.930;15.562;2022-07-04T08:40:31;40.10;99.90
18690;DHT22;9782;52.930;15.562;2022-07-04T08:43:01;38.90;99.90
18690;DHT22;9782;52.930;15.562;2022-07-04T08:45:30;37.50;99.90
18690;DHT22;9782;52.930;15.562;2022-07-04T08:48:00;37.10;99.90
18690;DHT22;9782;52.930;15.562;2022-07-04T08:50:31;37.30;99.90
18690;DHT22;9782;52.930;15.562;2022-07-04T08:53:02;37.00;99.90
18690;DHT22;9782;52.930;15.562;2022-07-04T08:55:32;36.30;99.90
18690;DHT22;9782;52.930;15.562;2022-07-04T08:58:17;36.10;99.90
18690;DHT22;9782;52.930;15.562;2022-07-04T09:00:56;36.30;99.90
18690;DHT22;9782;52.930;15.562;2022-07-04T09:03:24;36.40;99.90
18690;DHT22;9782;52.930;15.562;2022-07-04T09:05:58;36.60;99.90
18690;DHT22;9782;52.930;15.562;2022-07-04T09:08:37;36.90;99.90
18690;DHT22;9782;52.930;15.562;2022-07-04T09:11:05;37.30;99.90
18690;DHT22;9782;52.930;15.562;2022-07-04T09:13:32;37.50;99.90
18690;DHT22;9782;52.930;15.562;2022-07-04T09:16:04;37.50;99.90
18690;DHT22;9782;52.930;15.562;2022-07-04T09:18:33;37.70;99.90
18690;DHT22;9782;52.930;15.562;2022-07-04T09:21:02;38.10;99.90
18690;DHT22;9782;52.930;15.562;2022-07-04T09:23:32;38.30;99.90
18690;DHT22;9782;52.930;15.562;2022-07-04T09:26:09;38.10;99.90
18690;DHT22;9782;52.930;15.562;2022-07-04T09:28:37;38.20;99.90
18690;DHT22;9782;52.930;15.562;2022-07-04T09:31:14;38.10;99.90
18690;DHT22;9782;52.930;15.562;2022-07-04T09:33:46;38.00;99.90
18690;DHT22;9782;52.930;15.562;2022-07-04T09:36:16;37.80;99.90
18690;DHT22;9782;52.930;15.562;2022-07-04T09:38:43;37.60;99.90
18690;DHT22;9782;52.930;15.562;2022-07-04T09:41:12;37.10;99.90
18690;DHT22;9782;52.930;15.562;2022-07-04T09:44:02;36.60;99.90
18690;DHT22;9782;52.930;15.562;2022-07-04T09:46:29;36.40;99.90
18690;DHT22;9782;52.930;15.562;2022-07-04T09:48:56;36.10;99.90
18690;DHT22;9782;52.930;15.562;2022-07-04T09:51:38;35.50;99.90
18690;DHT22;9782;52.930;15.562;2022-07-04T09:54:22;34.60;99.90
18690;DHT22;9782;52.930;15.562;2022-07-04T09:56:54;34.20;99.90
18690;DHT22;9782;52.930;15.562;2022-07-04T09:59:23;34.30;99.90
18690;DHT22;9782;52.930;15.562;2022-07-04T10:01:50;34.30;99.90
18690;DHT22;9782;52.930;15.562;2022-07-04T10:04:18;34.40;99.90
18690;DHT22;9782;52.930;15.562;2022-07-04T10:06:47;34.10;99.90
18690;DHT22;9782;52.930;15.562;2022-07-04T10:09:14;33.60;99.90
18690;DHT22;9782;52.930;15.562;2022-07-04T10:11:44;33.20;99.90
18690;DHT22;9782;52.930;15.562;2022-07-04T10:14:13;33.10;99.90
18690;DHT22;9782;52.930;15.562;2022-07-04T10:16:41;33.20;99.90
18690;DHT22;9782;52.930;15.562;2022-07-04T10:19:08;33.20;99.90
18690;DHT22;9782;52.930;15.562;2022-07-04T10:21:41;32.70;99.90
18690;DHT22;9782;52.930;15.562;2022-07-04T10:24:11;32.20;99.90
18690;DHT22;9782;52.930;15.562;2022-07-04T10:26:38;31.60;99.90
18690;DHT22;9782;52.930;15.562;2022-07-04T10:29:05;31.40;99.90
18690;DHT22;9782;52.930;15.562;2022-07-04T10:31:35;31.50;99.90
18690;DHT22;9782;52.930;15.562;2022-07-04T10:34:03;31.40;99.90
18690;DHT22;9782;52.930;15.562;2022-07-04T10:36:31;31.60;99.90
18690;DHT22;9782;52.930;15.562;2022-07-04T10:38:59;31.90;99.90
18690;DHT22;9782;52.930;15.562;2022-07-04T10:41:28;32.10;99.90
18690;DHT22;9782;52.930;15.562;2022-07-04T10:43:56;32.10;99.90
18690;DHT22;9782;52.930;15.562;2022-07-04T10:46:31;32.10;99.90
18690;DHT22;9782;52.930;15.562;2022-07-04T10:49:01;32.00;99.90
18690;DHT22;9782;52.930;15.562;2022-07-04T10:51:32;31.90;99.90
18690;DHT22;9782;52.930;15.562;2022-07-04T10:54:00;31.90;99.90
18690;DHT22;9782;52.930;15.562;2022-07-04T10:56:43;31.80;99.90
18690;DHT22;9782;52.930;15.562;2022-07-04T10:59:11;31.80;99.90
18690;DHT22;9782;52.930;15.562;2022-07-04T11:01:38;31.70;99.90
18690;DHT22;9782;52.930;15.562;2022-07-04T11:04:07;31.50;99.90
18690;DHT22;9782;52.930;15.562;2022-07-04T11:07:00;31.30;99.90
18690;DHT22;9782;52.930;15.562;2022-07-04T11:16:07;31.00;99.90
18690;DHT22;9782;52.930;15.562;2022-07-04T11:18:41;31.10;99.90
18690;DHT22;9782;52.930;15.562;2022-07-04T11:21:31;31.20;99.90
18690;DHT22;9782;52.930;15.562;2022-07-04T11:23:59;31.30;99.90
18690;DHT22;9782;52.930;15.562;2022-07-04T11:26:26;31.40;99.90
18690;DHT22;9782;52.930;15.562;2022-07-04T11:28:53;31.40;99.90
18690;DHT22;9782;52.930;15.562;2022-07-04T11:31:21;31.20;99.90
18690;DHT22;9782;52.930;15.562;2022-07-04T11:33:52;30.90;99.90
18690;DHT22;9782;52.930;15.562;2022-07-04T11:36:19;30.80;99.90
18690;DHT22;9782;52.930;15.562;2022-07-04T11:38:49;30.60;99.90
18690;DHT22;9782;52.930;15.562;2022-07-04T11:41:17;30.50;99.90
18690;DHT22;9782;52.930;15.562;2022-07-04T11:44:06;30.40;99.90
18690;DHT22;9782;52.930;15.562;2022-07-04T11:47:01;30.30;99.90
18690;DHT22;9782;52.930;15.562;2022-07-04T11:49:28;30.40;99.90
18690;DHT22;9782;52.930;15.562;2022-07-04T11:51:56;30.40;99.90
18690;DHT22;9782;52.930;15.562;2022-07-04T11:54:24;30.60;99.90
18690;DHT22;9782;52.930;15.562;2022-07-04T11:56:51;30.60;99.90
18690;DHT22;9782;52.930;15.562;2022-07-04T11:59:18;30.70;99.90
18690;DHT22;9782;52.930;15.562;2022-07-04T12:01:45;30.70;99.90
18690;DHT22;9782;52.930;15.562;2022-07-04T12:04:17;30.60;99.90
18690;DHT22;9782;52.930;15.562;2022-07-04T12:06:46;30.70;99.90
18690;DHT22;9782;52.930;15.562;2022-07-04T12:09:15;30.50;99.90
18690;DHT22;9782;52.930;15.562;2022-07-04T12:11:57;30.40;99.90
18690;DHT22;9782;52.930;15.562;2022-07-04T12:14:26;30.10;99.90
18690;DHT22;9782;52.930;15.562;2022-07-04T12:17:10;30.00;99.90
18690;DHT22;9782;52.930;15.562;2022-07-04T12:19:37;30.10;99.90
18690;DHT22;9782;52.930;15.562;2022-07-04T12:22:06;30.30;99.90
18690;DHT22;9782;52.930;15.562;2022-07-04T12:24:41;30.40;99.90
18690;DHT22;9782;52.930;15.562;2022-07-04T12:27:18;30.40;99.90
18690;DHT22;9782;52.930;15.562;2022-07-04T12:29:48;30.20;99.90
18690;DHT22;9782;52.930;15.562;2022-07-04T12:32:16;30.00;99.90
18690;DHT22;9782;52.930;15.562;2022-07-04T12:34:43;29.80;99.90
18690;DHT22;9782;52.930;15.562;2022-07-04T12:37:11;29.70;99.90
18690;DHT22;9782;52.930;15.562;2022-07-04T12:39:40;29.60;99.90
18690;DHT22;9782;52.930;15.562;2022-07-04T12:42:10;29.50;99.90
18690;DHT22;9782;52.930;15.562;2022-07-04T12:44:40;29.40;99.90
18690;DHT22;9782;52.930;15.562;2022-07-04T12:47:07;29.40;99.90
18690;DHT22;9782;52.930;15.562;2022-07-04T12:49:45;29.50;99.90
18690;DHT22;9782;52.930;15.562;2022-07-04T12:52:15;29.50;99.90
18690;DHT22;9782;52.930;15.562;2022-07-04T12:55:01;29.50;99.90
18690;DHT22;9782;52.930;15.562;2022-07-04T12:57:28;29.30;99.90
18690;DHT22;9782;52.930;15.562;2022-07-04T12:59:56;28.90;99.90
18690;DHT22;9782;52.930;15.562;2022-07-04T13:02:23;28.70;99.90
18690;DHT22;9782;52.930;15.562;2022-07-04T13:04:50;28.50;99.90
18690;DHT22;9782;52.930;15.562;2022-07-04T13:07:17;28.50;99.90
18690;DHT22;9782;52.930;15.562;2022-07-04T13:09:45;28.60;99.90
18690;DHT22;9782;52.930;15.562;2022-07-04T13:12:12;28.80;99.90
18690;DHT22;9782;52.930;15.562;2022-07-04T13:14:57;28.80;99.90
18690;DHT22;9782;52.930;15.562;2022-07-04T13:17:25;28.90;99.90
18690;DHT22;9782;52.930;15.562;2022-07-04T13:19:52;29.20;99.90
18690;DHT22;9782;52.930;15.562;2022-07-04T13:22:19;29.10;99.90
18690;DHT22;9782;52.930;15.562;2022-07-04T13:24:46;29.00;99.90
18690;DHT22;9782;52.930;15.562;2022-07-04T13:27:13;29.00;99.90
18690;DHT22;9782;52.930;15.562;2022-07-04T13:29:40;29.00;99.90
18690;DHT22;9782;52.930;15.562;2022-07-04T13:32:09;29.10;99.90
18690;DHT22;9782;52.930;15.562;2022-07-04T13:34:41;29.00;99.90
18690;DHT22;9782;52.930;15.562;2022-07-04T13:37:08;28.80;99.90
18690;DHT22;9782;52.930;15.562;2022-07-04T13:39:35;28.50;99.90
18690;DHT22;9782;52.930;15.562;2022-07-04T13:42:03;28.40;99.90
18690;DHT22;9782;52.930;15.562;2022-07-04T13:44:30;28.20;99.90
18690;DHT22;9782;52.930;15.562;2022-07-04T13:46:56;28.10;99.90
18690;DHT22;9782;52.930;15.562;2022-07-04T13:49:26;27.90;99.90
18690;DHT22;9782;52.930;15.562;2022-07-04T13:51:54;27.80;99.90
18690;DHT22;9782;52.930;15.562;2022-07-04T13:54:25;27.90;99.90
18690;DHT22;9782;52.930;15.562;2022-07-04T13:56:53;28.10;99.90
18690;DHT22;9782;52.930;15.562;2022-07-04T13:59:23;28.30;99.90
18690;DHT22;9782;52.930;15.562;2022-07-04T14:01:59;28.50;99.90
18690;DHT22;9782;52.930;15.562;2022-07-04T14:04:35;28.60;99.90
18690;DHT22;9782;52.930;15.562;2022-07-04T14:07:09;28.70;99.90
18690;DHT22;9782;52.930;15.562;2022-07-04T14:09:41;28.80;99.90
18690;DHT22;9782;52.930;15.562;2022-07-04T14:12:08;28.70;99.90
18690;DHT22;9782;52.930;15.562;2022-07-04T14:14:35;28.70;99.90
18690;DHT22;9782;52.930;15.562;2022-07-04T14:17:02;28.80;99.90
18690;DHT22;9782;52.930;15.562;2022-07-04T14:19:29;28.60;99.90
18690;DHT22;9782;52.930;15.562;2022-07-04T14:21:57;28.40;99.90
18690;DHT22;9782;52.930;15.562;2022-07-04T14:24:25;28.40;99.90
18690;DHT22;9782;52.930;15.562;2022-07-04T14:26:52;28.30;99.90
18690;DHT22;9782;52.930;15.562;2022-07-04T14:29:19;28.20;99.90
18690;DHT22;9782;52.930;15.562;2022-07-04T14:31:46;28.00;99.90
18690;DHT22;9782;52.930;15.562;2022-07-04T14:34:16;27.90;99.90
18690;DHT22;9782;52.930;15.562;2022-07-04T14:36:43;27.80;99.90
18690;DHT22;9782;52.930;15.562;2022-07-04T14:39:12;27.70;99.90
18690;DHT22;9782;52.930;15.562;2022-07-04T14:41:42;27.60;99.90
18690;DHT22;9782;52.930;15.562;2022-07-04T14:44:15;27.50;99.90
18690;DHT22;9782;52.930;15.562;2022-07-04T14:46:48;27.50;99.90
18690;DHT22;9782;52.930;15.562;2022-07-04T14:49:15;27.50;99.90
18690;DHT22;9782;52.930;15.562;2022-07-04T14:51:42;27.60;99.90
18690;DHT22;9782;52.930;15.562;2022-07-04T14:54:09;27.50;99.90
18690;DHT22;9782;52.930;15.562;2022-07-04T14:56:38;27.30;99.90
18690;DHT22;9782;52.930;15.562;2022-07-04T14:59:05;27.30;99.90
18690;DHT22;9782;52.930;15.562;2022-07-04T15:01:32;27.20;99.90
18690;DHT22;9782;52.930;15.562;2022-07-04T15:03:59;27.20;99.90
18690;DHT22;9782;52.930;15.562;2022-07-04T15:06:26;27.20;99.90
18690;DHT22;9782;52.930;15.562;2022-07-04T15:08:53;27.10;99.90
18690;DHT22;9782;52.930;15.562;2022-07-04T15:11:20;26.90;99.90
18690;DHT22;9782;52.930;15.562;2022-07-04T15:13:48;26.80;99.90
18690;DHT22;9782;52.930;15.562;2022-07-04T15:16:15;26.80;99.90
18690;DHT22;9782;52.930;15.562;2022-07-04T15:18:46;26.90;99.90
18690;DHT22;9782;52.930;15.562;2022-07-04T15:21:13;26.90;99.90
18690;DHT22;9782;52.930;15.562;2022-07-04T15:23:57;26.90;99.90
18690;DHT22;9782;52.930;15.562;2022-07-04T15:26:45;26.90;99.90
18690;DHT22;9782;52.930;15.562;2022-07-04T15:29:16;26.90;99.90
18690;DHT22;9782;52.930;15.562;2022-07-04T15:31:43;26.90;99.90
18690;DHT22;9782;52.930;15.562;2022-07-04T15:34:11;26.80;99.90
18690;DHT22;9782;52.930;15.562;2022-07-04T15:36:38;26.70;99.90
18690;DHT22;9782;52.930;15.562;2022-07-04T15:39:10;26.40;99.90
18690;DHT22;9782;52.930;15.562;2022-07-04T15:41:38;26.30;99.90
18690;DHT22;9782;52.930;15.562;2022-07-04T15:44:05;26.10;99.90
18690;DHT22;9782;52.930;15.562;2022-07-04T15:46:34;26.10;99.90
18690;DHT22;9782;52.930;15.562;2022-07-04T15:49:22;26.10;99.90
18690;DHT22;9782;52.930;15.562;2022-07-04T15:51:50;26.10;99.90
18690;DHT22;9782;52.930;15.562;2022-07-04T15:54:20;26.20;99.90
18690;DHT22;9782;52.930;15.562;2022-07-04T15:56:48;26.40;99.90
18690;DHT22;9782;52.930;15.562;2022-07-04T15:59:15;26.60;99.90
18690;DHT22;9782;52.930;15.562;2022-07-04T16:01:43;26.70;99.90
18690;DHT22;9782;52.930;15.562;2022-07-04T16:04:10;26.70;99.90
18690;DHT22;9782;52.930;15.562;2022-07-04T16:06:41;26.70;99.90
18690;DHT22;9782;52.930;15.562;2022-07-04T16:09:10;26.60;99.90
18690;DHT22;9782;52.930;15.562;2022-07-04T16:11:37;26.50;99.90
18690;DHT22;9782;52.930;15.562;2022-07-04T16:14:14;26.40;99.90
18690;DHT22;9782;52.930;15.562;2022-07-04T16:16:59;26.30;99.90
18690;DHT22;9782;52.930;15.562;2022-07-04T16:19:37;26.20;99.90
18690;DHT22;9782;52.930;15.562;2022-07-04T16:22:04;26.10;99.90
18690;DHT22;9782;52.930;15.562;2022-07-04T16:24:31;26.00;99.90
18690;DHT22;9782;52.930;15.562;2022-07-04T16:26:59;25.90;99.90
18690;DHT22;9782;52.930;15.562;2022-07-04T16:29:29;25.80;99.90
18690;DHT22;9782;52.930;15.562;2022-07-04T16:32:04;25.80;99.90
18690;DHT22;9782;52.930;15.562;2022-07-04T16:34:35;25.80;99.90